Time;durP1;ratioP1;P1;durP2;ratioP2;P2;SDS_P1;SDS_P2;PMS_P1;PMS_P2;Temp;Humidity;BMP_temperature;BMP_pressure;BME280_temperature;BME280_humidity;BME280_pressure;Samples;Min_cycle;Max_cycle;Signal;HPM_P1;HPM_P2
2023/07/07 00:01:03;;;;;;;;;;;24.90;39.20;;;;;;1558491;74;791;-58
2023/07/07 00:03:05;;;;;;;;;;;24.90;39.20;;;;;;1553801;74;1108;-57
2023/07/07 00:05:07;;;;;;;;;;;24.90;39.20;;;;;;1571377;74;759;-57
2023/07/07 00:07:09;;;;;;;;;;;24.90;39.20;;;;;;1577928;74;736;-58
2023/07/07 00:09:11;;;;;;;;;;;24.90;39.20;;;;;;1573562;74;1192;-58
2023/07/07 00:11:13;;;;;;;;;;;24.90;39.20;;;;;;1572877;74;1669;-58
2023/07/07 00:13:15;;;;;;;;;;;24.90;39.10;;;;;;1574598;74;727;-58
2023/07/07 00:15:17;;;;;;;;;;;25.00;39.00;;;;;;1580327;74;1922;-59
2023/07/07 00:17:18;;;;;;;;;;;24.90;39.00;;;;;;1589447;74;779;-58
2023/07/07 00:19:20;;;;;;;;;;;25.00;38.90;;;;;;1583908;74;1144;-58
2023/07/07 00:21:24;;;;;;;;;;;25.00;39.00;;;;;;1574357;74;762;-59
2023/07/07 00:23:26;;;;;;;;;;;24.90;38.90;;;;;;1582192;74;1509;-59
2023/07/07 00:25:28;;;;;;;;;;;24.90;38.90;;;;;;1571114;74;667;-58
2023/07/07 00:27:30;;;;;;;;;;;25.00;38.90;;;;;;1580879;74;699;-58
2023/07/07 00:29:31;;;;;;;;;;;25.00;38.90;;;;;;1586122;74;1144;-58
2023/07/07 00:31:34;;;;;;;;;;;25.00;38.90;;;;;;1584694;74;722;-58
2023/07/07 00:33:36;;;;;;;;;;;24.90;39.00;;;;;;1582522;74;702;-58
2023/07/07 00:35:37;;;;;;;;;;;24.90;39.00;;;;;;1577707;74;1941;-57
2023/07/07 00:37:39;;;;;;;;;;;24.90;39.00;;;;;;1558790;75;1548;-58
2023/07/07 00:39:41;;;;;;;;;;;24.90;39.00;;;;;;1581139;74;1148;-58
2023/07/07 00:41:43;;;;;;;;;;;25.00;39.00;;;;;;1580405;74;735;-58
2023/07/07 00:44:04;;;;;;;;;;;24.90;39.00;;;;;;1577708;74;727;-58
2023/07/07 00:46:06;;;;;;;;;;;24.90;39.00;;;;;;1571353;74;741;-58
2023/07/07 00:48:10;;;;;;;;;;;24.90;38.90;;;;;;1570042;74;1165;-58
2023/07/07 00:50:12;;;;;;;;;;;24.90;38.90;;;;;;1576901;74;1814;-58
2023/07/07 00:52:14;;;;;;;;;;;24.90;38.90;;;;;;1587681;74;1532;-58
2023/07/07 00:54:17;;;;;;;;;;;24.80;38.90;;;;;;1587507;74;744;-59
2023/07/07 00:56:23;;;;;;;;;;;25.00;38.90;;;;;;1572554;74;1949;-59
2023/07/07 00:58:25;;;;;;;;;;;24.90;39.00;;;;;;1574932;74;1127;-58
2023/07/07 01:00:27;;;;;;;;;;;24.90;38.90;;;;;;1579085;74;700;-58
2023/07/07 01:02:29;;;;;;;;;;;24.90;38.90;;;;;;1575498;74;940;-58
2023/07/07 01:04:31;;;;;;;;;;;24.90;38.80;;;;;;1586835;74;1103;-58
2023/07/07 01:06:34;;;;;;;;;;;25.00;38.70;;;;;;1582320;74;1580;-59
2023/07/07 01:08:36;;;;;;;;;;;24.90;38.90;;;;;;1576731;74;1211;-58
2023/07/07 01:10:38;;;;;;;;;;;24.90;38.90;;;;;;1574701;74;604;-58
2023/07/07 01:12:40;;;;;;;;;;;24.80;38.80;;;;;;1565745;74;638;-58
2023/07/07 01:14:43;;;;;;;;;;;24.90;38.90;;;;;;1572726;74;1927;-58
2023/07/07 01:16:55;;;;;;;;;;;24.90;38.90;;;;;;1579282;74;798;-59
2023/07/07 01:19:15;;;;;;;;;;;24.90;38.80;;;;;;1578620;74;1617;-59
2023/07/07 01:21:29;;;;;;;;;;;24.90;38.70;;;;;;1571702;74;1710;-60
2023/07/07 01:23:46;;;;;;;;;;;24.90;38.90;;;;;;1486538;77;1463;-59
2023/07/07 01:26:02;;;;;;;;;;;24.80;38.90;;;;;;1578621;74;853;-59
2023/07/07 01:28:07;;;;;;;;;;;24.80;38.90;;;;;;1582231;74;734;-59
2023/07/07 01:30:29;;;;;;;;;;;24.80;38.90;;;;;;1578055;74;1860;-59
2023/07/07 01:32:31;;;;;;;;;;;24.80;38.90;;;;;;1566983;74;849;-59
2023/07/07 01:34:33;;;;;;;;;;;24.80;39.00;;;;;;1569000;74;1496;-60
2023/07/07 01:36:34;;;;;;;;;;;24.70;38.90;;;;;;1571311;74;1934;-61
2023/07/07 01:38:38;;;;;;;;;;;24.70;39.20;;;;;;1566795;74;1135;-59
2023/07/07 01:40:42;;;;;;;;;;;24.70;39.40;;;;;;1573522;74;681;-59
2023/07/07 01:42:46;;;;;;;;;;;24.70;39.50;;;;;;1572118;74;1946;-60
2023/07/07 01:44:58;;;;;;;;;;;24.70;39.40;;;;;;1571181;74;786;-59
2023/07/07 01:47:01;;;;;;;;;;;24.70;39.40;;;;;;1569312;74;738;-59
2023/07/07 01:49:05;;;;;;;;;;;24.80;39.50;;;;;;1570012;74;1667;-59
2023/07/07 01:51:06;;;;;;;;;;;24.80;39.40;;;;;;1566715;74;902;-59
2023/07/07 01:53:10;;;;;;;;;;;24.80;39.50;;;;;;1577075;74;708;-59
2023/07/07 01:55:19;;;;;;;;;;;24.80;39.40;;;;;;1578977;74;1917;-59
2023/07/07 01:57:21;;;;;;;;;;;24.80;39.50;;;;;;1574899;74;762;-59
2023/07/07 01:59:23;;;;;;;;;;;24.80;39.30;;;;;;1579866;74;1151;-59
2023/07/07 02:01:25;;;;;;;;;;;24.80;39.60;;;;;;1570097;74;748;-60
2023/07/07 02:03:28;;;;;;;;;;;24.80;39.70;;;;;;1536894;75;1639;-60
2023/07/07 02:05:30;;;;;;;;;;;24.80;39.70;;;;;;1581099;74;685;-60
2023/07/07 02:07:31;;;;;;;;;;;24.80;39.70;;;;;;1575651;74;747;-60
2023/07/07 02:09:34;;;;;;;;;;;24.80;39.60;;;;;;1569345;74;1189;-60
2023/07/07 02:11:35;;;;;;;;;;;24.80;39.60;;;;;;1566621;74;739;-60
2023/07/07 02:13:37;;;;;;;;;;;24.80;39.70;;;;;;1567172;74;734;-59
2023/07/07 02:15:39;;;;;;;;;;;24.80;39.70;;;;;;1569922;74;1927;-59
2023/07/07 02:17:41;;;;;;;;;;;24.80;39.70;;;;;;1572083;74;1666;-60
2023/07/07 02:19:43;;;;;;;;;;;24.80;39.80;;;;;;1569944;74;1137;-58
2023/07/07 02:21:45;;;;;;;;;;;24.70;39.70;;;;;;1579658;74;753;-59
2023/07/07 02:23:47;;;;;;;;;;;24.70;39.80;;;;;;1581039;74;718;-60
2023/07/07 02:25:49;;;;;;;;;;;24.70;39.90;;;;;;1585479;74;757;-58
2023/07/07 02:27:51;;;;;;;;;;;24.70;39.90;;;;;;1567579;74;758;-60
2023/07/07 02:29:53;;;;;;;;;;;24.70;39.90;;;;;;1579570;74;1541;-59
2023/07/07 02:31:54;;;;;;;;;;;24.70;39.90;;;;;;1574020;74;650;-59
2023/07/07 02:33:56;;;;;;;;;;;24.80;39.90;;;;;;1575231;74;598;-58
2023/07/07 02:36:00;;;;;;;;;;;24.80;39.90;;;;;;1568646;74;1915;-58
2023/07/07 02:38:02;;;;;;;;;;;24.70;40.00;;;;;;1563281;74;805;-60
2023/07/07 02:40:05;;;;;;;;;;;24.70;40.00;;;;;;1569336;74;1150;-58
2023/07/07 02:42:07;;;;;;;;;;;24.70;40.10;;;;;;1578851;74;728;-59
2023/07/07 02:44:08;;;;;;;;;;;24.70;40.20;;;;;;1579310;74;1566;-60
2023/07/07 02:46:10;;;;;;;;;;;24.70;40.10;;;;;;1567087;74;801;-58
2023/07/07 02:48:13;;;;;;;;;;;24.80;40.10;;;;;;1583149;74;1193;-60
2023/07/07 02:50:15;;;;;;;;;;;24.80;40.10;;;;;;1582933;74;747;-59
2023/07/07 02:52:17;;;;;;;;;;;24.80;40.20;;;;;;1570311;74;702;-58
2023/07/07 02:54:19;;;;;;;;;;;24.70;40.10;;;;;;1578871;74;812;-59
2023/07/07 02:56:21;;;;;;;;;;;24.80;40.10;;;;;;1566413;74;1922;-59
2023/07/07 02:58:23;;;;;;;;;;;24.80;40.20;;;;;;1571804;74;1562;-59
2023/07/07 03:00:25;;;;;;;;;;;24.80;40.20;;;;;;1578876;74;798;-60
2023/07/07 03:02:27;;;;;;;;;;;24.80;40.20;;;;;;1589836;74;768;-59
2023/07/07 03:04:28;;;;;;;;;;;24.70;40.20;;;;;;1566675;74;1468;-59
2023/07/07 03:06:30;;;;;;;;;;;24.70;40.20;;;;;;1569885;74;695;-59
2023/07/07 03:08:32;;;;;;;;;;;24.70;40.20;;;;;;1572680;74;1201;-59
2023/07/07 03:10:38;;;;;;;;;;;24.70;40.20;;;;;;1568713;74;743;-60
2023/07/07 03:12:40;;;;;;;;;;;24.80;40.20;;;;;;1570148;74;1723;-60
2023/07/07 03:14:42;;;;;;;;;;;24.70;40.20;;;;;;1565599;74;850;-60
2023/07/07 03:16:51;;;;;;;;;;;24.70;40.20;;;;;;1572101;74;1924;-59
2023/07/07 03:18:48;;;;;;;;;;;24.70;40.20;;;;;;1574468;74;1162;-60
2023/07/07 03:20:50;;;;;;;;;;;24.70;40.20;;;;;;1567074;74;649;-58
2023/07/07 03:22:52;;;;;;;;;;;24.70;40.30;;;;;;1576011;74;793;-58
2023/07/07 03:24:54;;;;;;;;;;;24.70;40.30;;;;;;1569506;74;717;-58
2023/07/07 03:26:56;;;;;;;;;;;24.70;40.20;;;;;;1578338;74;1247;-58
2023/07/07 03:28:57;;;;;;;;;;;24.70;40.20;;;;;;1576441;74;1141;-58
2023/07/07 03:31:01;;;;;;;;;;;24.80;40.20;;;;;;1572555;74;697;-58
2023/07/07 03:33:03;;;;;;;;;;;24.80;40.10;;;;;;1582162;74;1680;-58
2023/07/07 03:35:05;;;;;;;;;;;24.80;40.10;;;;;;1570189;74;748;-58
2023/07/07 03:37:07;;;;;;;;;;;24.80;40.20;;;;;;1565785;74;1925;-58
2023/07/07 03:39:09;;;;;;;;;;;24.80;40.20;;;;;;1563593;74;1113;-58
2023/07/07 03:41:13;;;;;;;;;;;24.70;40.10;;;;;;1565503;74;1542;-59
2023/07/07 03:43:18;;;;;;;;;;;24.80;40.20;;;;;;1574877;74;724;-60
2023/07/07 03:45:18;;;;;;;;;;;24.70;40.10;;;;;;1568632;74;1703;-58
2023/07/07 03:47:20;;;;;;;;;;;24.80;40.20;;;;;;1568135;74;729;-57
2023/07/07 03:49:22;;;;;;;;;;;24.80;40.20;;;;;;1589735;74;1183;-60
2023/07/07 03:51:24;;;;;;;;;;;24.80;40.20;;;;;;1578566;74;738;-58
2023/07/07 03:53:26;;;;;;;;;;;24.70;40.20;;;;;;1577596;74;724;-59
2023/07/07 03:55:28;;;;;;;;;;;24.70;40.20;;;;;;1575399;74;1580;-59
2023/07/07 03:57:30;;;;;;;;;;;24.80;40.20;;;;;;1568744;74;1923;-59
2023/07/07 03:59:31;;;;;;;;;;;24.70;40.30;;;;;;1584861;74;1160;-59
2023/07/07 04:01:33;;;;;;;;;;;24.70;40.40;;;;;;1580085;74;693;-60
2023/07/07 04:03:35;;;;;;;;;;;24.70;40.50;;;;;;1574192;74;694;-58
2023/07/07 04:05:42;;;;;;;;;;;24.80;40.30;;;;;;1568587;74;1090;-59
2023/07/07 04:07:45;;;;;;;;;;;24.80;40.50;;;;;;1578841;74;1758;-59
2023/07/07 04:09:47;;;;;;;;;;;24.80;40.40;;;;;;1579821;74;1599;-60
2023/07/07 04:11:49;;;;;;;;;;;24.80;40.40;;;;;;1575871;74;723;-59
2023/07/07 04:13:51;;;;;;;;;;;24.80;40.40;;;;;;1588572;74;856;-59
2023/07/07 04:16:03;;;;;;;;;;;24.80;40.30;;;;;;1578192;74;1931;-59
2023/07/07 04:18:05;;;;;;;;;;;24.80;40.30;;;;;;1574149;74;576;-60
2023/07/07 04:20:08;;;;;;;;;;;24.70;40.40;;;;;;1575511;74;747;-57
2023/07/07 04:22:10;;;;;;;;;;;24.80;40.50;;;;;;1567599;74;730;-57
2023/07/07 04:24:12;;;;;;;;;;;24.70;40.70;;;;;;1578470;74;1678;-59
2023/07/07 04:26:13;;;;;;;;;;;24.80;40.70;;;;;;1567696;74;794;-59
2023/07/07 04:28:15;;;;;;;;;;;24.70;40.60;;;;;;1578509;74;1187;-58
2023/07/07 04:30:17;;;;;;;;;;;24.70;40.70;;;;;;1576555;74;702;-58
2023/07/07 04:32:19;;;;;;;;;;;24.70;40.60;;;;;;1576090;74;838;-59
2023/07/07 04:34:21;;;;;;;;;;;24.70;40.70;;;;;;1566661;74;736;-61
2023/07/07 04:36:23;;;;;;;;;;;24.70;40.80;;;;;;1573732;74;1942;-60
2023/07/07 04:38:31;;;;;;;;;;;24.60;40.90;;;;;;1586166;74;1458;-60
2023/07/07 04:40:33;;;;;;;;;;;24.70;40.90;;;;;;1575761;74;530;-59
2023/07/07 04:42:34;;;;;;;;;;;24.70;40.80;;;;;;1581537;74;781;-60
2023/07/07 04:44:37;;;;;;;;;;;24.60;40.90;;;;;;1571501;74;670;-58
2023/07/07 04:46:39;;;;;;;;;;;24.60;40.90;;;;;;1565933;74;771;-58
2023/07/07 04:48:41;;;;;;;;;;;24.60;40.90;;;;;;1567976;74;1184;-58
2023/07/07 04:50:42;;;;;;;;;;;24.70;41.00;;;;;;1567196;74;1568;-60
2023/07/07 04:52:44;;;;;;;;;;;24.70;41.10;;;;;;1567854;74;734;-60
2023/07/07 04:54:47;;;;;;;;;;;24.70;41.20;;;;;;1574972;74;714;-58
2023/07/07 04:56:49;;;;;;;;;;;24.60;41.00;;;;;;1582177;74;1933;-60
2023/07/07 04:58:52;;;;;;;;;;;24.70;41.10;;;;;;1570020;74;1120;-60
2023/07/07 05:00:56;;;;;;;;;;;24.70;41.20;;;;;;1568636;74;678;-59
2023/07/07 05:02:59;;;;;;;;;;;24.60;41.00;;;;;;1575279;74;2099;-60
2023/07/07 05:05:01;;;;;;;;;;;24.70;41.10;;;;;;1562840;74;1520;-60
2023/07/07 05:07:02;;;;;;;;;;;24.60;41.00;;;;;;1577296;74;1073;-59
2023/07/07 05:09:05;;;;;;;;;;;24.60;41.40;;;;;;1575574;74;1204;-58
2023/07/07 05:11:07;;;;;;;;;;;24.70;41.50;;;;;;1575548;74;732;-58
2023/07/07 05:13:09;;;;;;;;;;;24.70;41.60;;;;;;1579158;73;664;-59
2023/07/07 05:15:11;;;;;;;;;;;24.60;41.50;;;;;;1569235;74;745;-58
2023/07/07 05:17:12;;;;;;;;;;;24.60;41.50;;;;;;1579056;74;1938;-58
2023/07/07 05:19:14;;;;;;;;;;;24.60;41.50;;;;;;1580081;74;1519;-60
2023/07/07 05:21:17;;;;;;;;;;;24.60;41.50;;;;;;1582713;74;721;-59
2023/07/07 05:23:19;;;;;;;;;;;24.60;41.50;;;;;;1568425;74;742;-59
2023/07/07 05:25:21;;;;;;;;;;;24.50;41.50;;;;;;1589660;74;889;-59
2023/07/07 05:27:22;;;;;;;;;;;24.60;41.50;;;;;;1587277;74;724;-59
2023/07/07 05:29:25;;;;;;;;;;;24.60;41.50;;;;;;1577635;74;1121;-60
2023/07/07 05:31:26;;;;;;;;;;;24.60;41.40;;;;;;1576647;74;770;-60
2023/07/07 05:33:28;;;;;;;;;;;24.60;41.40;;;;;;1576271;74;1480;-59
2023/07/07 05:35:30;;;;;;;;;;;24.60;41.40;;;;;;1589517;74;701;-58
2023/07/07 05:37:32;;;;;;;;;;;24.60;41.50;;;;;;1575103;74;1936;-58
2023/07/07 05:39:34;;;;;;;;;;;24.70;41.60;;;;;;1574078;74;1155;-59
2023/07/07 05:41:36;;;;;;;;;;;24.70;41.60;;;;;;1581915;74;663;-59
2023/07/07 05:43:38;;;;;;;;;;;24.70;41.50;;;;;;1582440;74;640;-59
2023/07/07 05:45:40;;;;;;;;;;;24.70;41.50;;;;;;1580968;74;636;-58
2023/07/07 05:47:41;;;;;;;;;;;24.60;41.40;;;;;;1574775;74;1538;-59
2023/07/07 05:49:43;;;;;;;;;;;24.60;41.40;;;;;;1572984;74;1173;-60
2023/07/07 05:51:45;;;;;;;;;;;24.70;41.50;;;;;;1570125;74;1003;-59
2023/07/07 05:53:47;;;;;;;;;;;24.60;41.30;;;;;;1581303;74;1053;-60
2023/07/07 05:55:49;;;;;;;;;;;24.60;41.40;;;;;;1586642;74;1217;-59
2023/07/07 05:57:51;;;;;;;;;;;24.70;41.50;;;;;;1588683;74;1934;-59
2023/07/07 05:59:53;;;;;;;;;;;24.70;41.40;;;;;;1573279;74;1117;-60
2023/07/07 06:01:54;;;;;;;;;;;24.70;41.40;;;;;;1587994;74;1702;-59
2023/07/07 06:03:56;;;;;;;;;;;24.70;41.40;;;;;;1578835;74;1071;-59
2023/07/07 06:05:58;;;;;;;;;;;24.70;41.40;;;;;;1582670;74;1075;-58
2023/07/07 06:08:00;;;;;;;;;;;24.60;41.30;;;;;;1590060;74;1482;-59
2023/07/07 06:10:02;;;;;;;;;;;24.70;41.50;;;;;;1575057;74;1480;-59
2023/07/07 06:12:05;;;;;;;;;;;24.70;41.50;;;;;;1582251;74;1274;-59
2023/07/07 06:14:07;;;;;;;;;;;24.70;41.50;;;;;;1577733;74;1072;-60
2023/07/07 06:16:08;;;;;;;;;;;24.70;41.50;;;;;;1573550;74;1431;-60
2023/07/07 06:18:10;;;;;;;;;;;24.70;41.60;;;;;;1578524;74;1935;-58
2023/07/07 06:20:13;;;;;;;;;;;24.70;41.60;;;;;;1588681;74;1466;-58
2023/07/07 06:22:15;;;;;;;;;;;24.80;41.60;;;;;;1586716;74;1486;-59
2023/07/07 06:24:16;;;;;;;;;;;24.80;41.60;;;;;;1586991;74;1483;-59
2023/07/07 06:26:18;;;;;;;;;;;24.80;41.60;;;;;;1574712;74;1540;-59
2023/07/07 06:28:20;;;;;;;;;;;24.70;41.60;;;;;;1590283;73;1139;-61
2023/07/07 06:30:22;;;;;;;;;;;24.70;41.80;;;;;;1576901;74;1231;-58
2023/07/07 06:32:24;;;;;;;;;;;24.70;41.80;;;;;;1589295;73;1214;-59
2023/07/07 06:34:26;;;;;;;;;;;24.70;41.70;;;;;;1587121;74;1509;-59
2023/07/07 06:36:28;;;;;;;;;;;24.70;41.80;;;;;;1579706;74;1515;-60
2023/07/07 06:38:31;;;;;;;;;;;24.70;41.80;;;;;;1578721;74;1981;-59
2023/07/07 06:40:34;;;;;;;;;;;24.70;41.80;;;;;;1589269;74;1115;-60
2023/07/07 06:42:36;;;;;;;;;;;24.80;41.90;;;;;;1584075;74;1058;-59
2023/07/07 06:44:38;;;;;;;;;;;24.70;41.80;;;;;;1581082;74;1573;-59
2023/07/07 06:46:40;;;;;;;;;;;24.70;41.90;;;;;;1573970;74;1422;-59
2023/07/07 06:48:42;;;;;;;;;;;24.70;41.70;;;;;;1579922;74;1143;-59
2023/07/07 06:50:44;;;;;;;;;;;24.80;41.70;;;;;;1581019;74;1052;-59
2023/07/07 06:52:46;;;;;;;;;;;24.80;41.70;;;;;;1589246;74;1106;-61
2023/07/07 06:54:48;;;;;;;;;;;24.80;41.80;;;;;;1577590;74;1326;-59
2023/07/07 06:56:49;;;;;;;;;;;24.80;41.70;;;;;;1587976;74;1919;-60
2023/07/07 06:58:52;;;;;;;;;;;24.80;41.70;;;;;;1578027;74;1275;-59
2023/07/07 07:00:53;;;;;;;;;;;24.80;41.70;;;;;;1587207;74;1140;-60
2023/07/07 07:02:55;;;;;;;;;;;24.80;41.60;;;;;;1582249;74;1059;-59
2023/07/07 07:04:57;;;;;;;;;;;24.80;41.70;;;;;;1581298;74;1070;-59
2023/07/07 07:06:59;;;;;;;;;;;24.80;41.70;;;;;;1566084;74;1247;-59
2023/07/07 07:09:01;;;;;;;;;;;24.80;41.70;;;;;;1573980;74;1198;-59
2023/07/07 07:11:03;;;;;;;;;;;24.80;41.70;;;;;;1566086;74;1471;-59
2023/07/07 07:13:05;;;;;;;;;;;24.80;41.70;;;;;;1571609;74;1453;-58
2023/07/07 07:15:07;;;;;;;;;;;24.80;41.70;;;;;;1571827;74;1079;-58
2023/07/07 07:17:09;;;;;;;;;;;24.80;41.80;;;;;;1569366;74;1934;-58
2023/07/07 07:19:11;;;;;;;;;;;24.80;41.80;;;;;;1569234;74;1149;-58
2023/07/07 07:21:13;;;;;;;;;;;24.70;41.70;;;;;;1572045;74;1084;-59
2023/07/07 07:23:15;;;;;;;;;;;24.80;41.80;;;;;;1567967;73;1083;-60
2023/07/07 07:25:17;;;;;;;;;;;24.80;41.80;;;;;;1580980;74;1471;-60
2023/07/07 07:27:19;;;;;;;;;;;24.80;41.70;;;;;;1573955;73;1099;-59
2023/07/07 07:29:21;;;;;;;;;;;24.30;41.50;;;;;;1566520;74;1137;-58
2023/07/07 07:31:23;;;;;;;;;;;24.80;41.80;;;;;;1580805;73;1168;-59
2023/07/07 07:33:24;;;;;;;;;;;24.80;41.70;;;;;;1571382;73;1189;-59
2023/07/07 07:35:26;;;;;;;;;;;24.80;41.80;;;;;;1571118;74;1087;-59
2023/07/07 07:37:28;;;;;;;;;;;24.80;41.80;;;;;;1583865;74;1933;-59
2023/07/07 07:39:30;;;;;;;;;;;24.80;41.80;;;;;;1574046;74;1515;-59
2023/07/07 07:41:32;;;;;;;;;;;24.80;41.90;;;;;;1583119;74;1416;-61
2023/07/07 07:43:34;;;;;;;;;;;24.80;41.90;;;;;;1584136;74;1114;-59
2023/07/07 07:45:36;;;;;;;;;;;24.80;41.90;;;;;;1579229;74;1521;-59
2023/07/07 07:47:37;;;;;;;;;;;24.80;42.00;;;;;;1579148;74;1126;-59
2023/07/07 07:49:39;;;;;;;;;;;24.80;42.00;;;;;;1582445;74;1147;-58
2023/07/07 07:51:41;;;;;;;;;;;24.80;42.10;;;;;;1570089;74;1556;-59
2023/07/07 07:53:43;;;;;;;;;;;24.80;42.10;;;;;;1577929;74;1500;-60
2023/07/07 07:55:45;;;;;;;;;;;24.80;42.10;;;;;;1573291;74;1475;-60
2023/07/07 07:57:47;;;;;;;;;;;24.80;42.10;;;;;;1577852;74;1928;-59
2023/07/07 07:59:49;;;;;;;;;;;24.80;42.10;;;;;;1576951;74;1156;-59
2023/07/07 08:01:51;;;;;;;;;;;24.80;42.30;;;;;;1576194;74;1191;-58
2023/07/07 08:03:54;;;;;;;;;;;24.80;42.40;;;;;;1571552;74;1490;-59
2023/07/07 08:05:56;;;;;;;;;;;24.80;42.30;;;;;;1578888;74;1258;-60
2023/07/07 08:07:58;;;;;;;;;;;24.80;42.40;;;;;;1570964;74;1560;-59
2023/07/07 08:10:00;;;;;;;;;;;24.80;42.40;;;;;;1567839;74;1168;-60
2023/07/07 08:12:03;;;;;;;;;;;24.80;42.40;;;;;;1571912;74;1386;-61
2023/07/07 08:14:05;;;;;;;;;;;24.80;42.40;;;;;;1574254;74;1232;-59
2023/07/07 08:16:08;;;;;;;;;;;24.90;42.40;;;;;;1568444;74;1463;-59
2023/07/07 08:18:10;;;;;;;;;;;24.80;42.40;;;;;;1568719;74;1943;-60
2023/07/07 08:20:13;;;;;;;;;;;24.80;42.50;;;;;;1581312;74;1505;-58
2023/07/07 08:22:17;;;;;;;;;;;24.80;42.50;;;;;;1575219;74;2101;-60
2023/07/07 08:24:19;;;;;;;;;;;24.80;42.40;;;;;;1577558;74;1460;-59
2023/07/07 08:26:21;;;;;;;;;;;24.80;42.60;;;;;;1579705;74;1488;-59
2023/07/07 08:28:23;;;;;;;;;;;24.80;42.80;;;;;;1577609;74;1118;-59
2023/07/07 08:30:24;;;;;;;;;;;24.80;43.00;;;;;;1577957;74;1466;-60
2023/07/07 08:32:26;;;;;;;;;;;24.80;43.40;;;;;;1580407;73;1126;-60
2023/07/07 08:34:28;;;;;;;;;;;24.70;43.60;;;;;;1576150;74;1108;-59
2023/07/07 08:36:30;;;;;;;;;;;24.80;44.00;;;;;;1579008;74;1314;-58
2023/07/07 08:38:32;;;;;;;;;;;24.80;44.90;;;;;;1578277;74;1935;-58
2023/07/07 08:40:36;;;;;;;;;;;24.80;45.80;;;;;;1574975;74;1483;-59
2023/07/07 08:42:38;;;;;;;;;;;24.80;46.30;;;;;;1574720;74;1305;-59
2023/07/07 08:44:40;;;;;;;;;;;24.80;46.50;;;;;;1577308;74;1493;-60
2023/07/07 08:47:00;;;;;;;;;;;24.80;46.20;;;;;;1562455;74;1481;-59
2023/07/07 08:49:04;;;;;;;;;;;24.80;46.40;;;;;;1582923;73;1136;-60
2023/07/07 08:51:07;;;;;;;;;;;24.80;46.70;;;;;;1570556;74;1308;-61
2023/07/07 08:53:14;;;;;;;;;;;24.80;46.30;;;;;;1583652;74;1558;-61
2023/07/07 08:55:32;;;;;;;;;;;24.90;45.50;;;;;;1563798;74;1750;-60
2023/07/07 08:57:36;;;;;;;;;;;25.00;44.20;;;;;;1575394;74;1950;-60
2023/07/07 08:59:51;;;;;;;;;;;25.00;43.40;;;;;;1581328;74;1632;-59
2023/07/07 09:02:10;;;;;;;;;;;25.00;41.40;;;;;;1564146;74;1277;-58
2023/07/07 09:04:20;;;;;;;;;;;25.00;40.70;;;;;;1568459;74;1533;-58
2023/07/07 09:06:23;;;;;;;;;;;25.00;40.10;;;;;;1532186;74;1135;-59
2023/07/07 09:08:36;;;;;;;;;;;25.00;39.70;;;;;;1580387;74;1900;-61
2023/07/07 09:10:39;;;;;;;;;;;25.10;39.20;;;;;;1577578;74;1755;-59
2023/07/07 09:12:42;;;;;;;;;;;25.10;38.90;;;;;;1581813;73;1093;-59
2023/07/07 09:14:44;;;;;;;;;;;25.10;38.30;;;;;;1580667;74;1468;-59
2023/07/07 09:16:46;;;;;;;;;;;25.10;38.70;;;;;;1587638;74;1391;-59
2023/07/07 09:18:56;;;;;;;;;;;25.10;38.70;;;;;;1545262;75;1940;-60
2023/07/07 09:20:58;;;;;;;;;;;25.20;38.20;;;;;;1580451;74;1471;-59
2023/07/07 09:23:01;;;;;;;;;;;25.10;38.20;;;;;;1589465;74;1168;-59
2023/07/07 09:25:21;;;;;;;;;;;25.20;38.40;;;;;;1576170;74;1099;-59
2023/07/07 09:27:30;;;;;;;;;;;25.20;37.80;;;;;;1587632;74;1261;-60
2023/07/07 09:29:31;;;;;;;;;;;25.30;38.40;;;;;;1586147;74;1100;-59
2023/07/07 09:31:42;;;;;;;;;;;25.30;37.40;;;;;;1587073;74;1546;-60
2023/07/07 09:33:44;;;;;;;;;;;25.30;37.40;;;;;;1582571;73;1527;-60
2023/07/07 09:35:50;;;;;;;;;;;25.30;38.10;;;;;;1587422;74;1199;-60
2023/07/07 09:38:03;;;;;;;;;;;25.40;38.10;;;;;;1580530;74;1953;-59
2023/07/07 09:40:15;;;;;;;;;;;25.40;37.80;;;;;;1590845;74;1172;-60
2023/07/07 09:42:36;;;;;;;;;;;25.40;37.60;;;;;;1575474;74;1187;-61
2023/07/07 09:44:48;;;;;;;;;;;25.40;37.20;;;;;;1579987;74;1614;-60
2023/07/07 09:46:51;;;;;;;;;;;25.40;37.60;;;;;;1578726;74;1896;-60
2023/07/07 09:48:55;;;;;;;;;;;25.40;37.30;;;;;;1580431;74;1149;-59
2023/07/07 09:50:58;;;;;;;;;;;25.40;37.30;;;;;;1581417;74;2058;-59
2023/07/07 09:53:02;;;;;;;;;;;25.40;37.40;;;;;;1579828;74;1417;-60
2023/07/07 09:55:06;;;;;;;;;;;25.30;37.30;;;;;;1585552;74;1091;-59
2023/07/07 09:57:18;;;;;;;;;;;25.30;37.00;;;;;;1587750;74;1587;-59
2023/07/07 09:59:21;;;;;;;;;;;25.30;36.80;;;;;;1575937;74;1936;-59
2023/07/07 10:01:28;;;;;;;;;;;25.30;37.00;;;;;;1584321;74;1308;-59
2023/07/07 10:03:43;;;;;;;;;;;25.40;37.30;;;;;;1586350;74;1525;-59
2023/07/07 10:05:45;;;;;;;;;;;25.40;37.10;;;;;;1581378;74;1452;-60
2023/07/07 10:07:47;;;;;;;;;;;25.40;36.70;;;;;;1579427;74;1149;-59
2023/07/07 10:09:49;;;;;;;;;;;25.40;36.80;;;;;;1582427;74;1105;-61
2023/07/07 10:11:51;;;;;;;;;;;25.40;37.00;;;;;;1567862;74;1214;-59
2023/07/07 10:13:53;;;;;;;;;;;25.40;37.10;;;;;;1569722;74;1495;-60
2023/07/07 10:15:56;;;;;;;;;;;25.50;37.30;;;;;;1567136;74;1562;-59
2023/07/07 10:18:03;;;;;;;;;;;25.40;37.00;;;;;;1575799;74;1950;-59
2023/07/07 10:20:05;;;;;;;;;;;25.40;36.80;;;;;;1577323;74;1139;-60
2023/07/07 10:22:07;;;;;;;;;;;25.40;36.30;;;;;;1582672;74;1100;-61
2023/07/07 10:24:12;;;;;;;;;;;25.30;36.50;;;;;;1570698;74;1032;-60
2023/07/07 10:26:14;;;;;;;;;;;25.30;37.10;;;;;;1582323;74;1178;-60
2023/07/07 10:28:16;;;;;;;;;;;25.40;36.30;;;;;;1544436;76;1550;-59
2023/07/07 10:30:18;;;;;;;;;;;25.40;36.50;;;;;;1577190;74;1281;-59
2023/07/07 10:32:23;;;;;;;;;;;25.50;36.60;;;;;;1562373;73;1072;-59
2023/07/07 10:34:30;;;;;;;;;;;25.40;36.10;;;;;;1571589;74;1073;-59
2023/07/07 10:36:32;;;;;;;;;;;25.40;36.00;;;;;;1576604;74;1494;-60
2023/07/07 10:38:34;;;;;;;;;;;25.30;35.90;;;;;;1573943;74;1932;-59
2023/07/07 10:40:36;;;;;;;;;;;25.30;35.00;;;;;;1541027;75;1117;-60
2023/07/07 10:42:38;;;;;;;;;;;25.30;35.50;;;;;;1568210;74;1453;-59
2023/07/07 10:44:40;;;;;;;;;;;25.40;35.50;;;;;;1564084;74;1079;-60
2023/07/07 10:46:42;;;;;;;;;;;25.40;35.40;;;;;;1572260;74;1123;-60
2023/07/07 10:48:44;;;;;;;;;;;25.30;35.80;;;;;;1573959;74;1158;-60
2023/07/07 10:50:56;;;;;;;;;;;25.30;36.20;;;;;;1571828;74;1115;-60
2023/07/07 10:53:16;;;;;;;;;;;25.30;36.00;;;;;;1564543;74;1900;-59
2023/07/07 10:55:38;;;;;;;;;;;25.30;36.30;;;;;;1576211;74;1163;-59
2023/07/07 10:58:00;;;;;;;;;;;25.40;36.20;;;;;;1580454;74;1529;-59
2023/07/07 11:00:20;;;;;;;;;;;25.40;36.00;;;;;;1577552;74;1959;-59
2023/07/07 11:02:26;;;;;;;;;;;25.30;36.00;;;;;;1573664;74;1053;-59
2023/07/07 11:04:38;;;;;;;;;;;25.40;35.90;;;;;;1566779;74;1803;-59
2023/07/07 11:06:48;;;;;;;;;;;25.40;35.60;;;;;;1569778;73;1119;-60
2023/07/07 11:08:51;;;;;;;;;;;25.40;35.50;;;;;;1569206;74;1880;-58
2023/07/07 11:11:07;;;;;;;;;;;25.40;35.10;;;;;;1572277;74;1151;-58
2023/07/07 11:13:16;;;;;;;;;;;25.40;35.60;;;;;;1575448;74;1225;-61
2023/07/07 11:15:29;;;;;;;;;;;25.40;34.30;;;;;;1574489;74;1898;-59
2023/07/07 11:17:32;;;;;;;;;;;25.30;35.20;;;;;;1570723;74;1789;-60
2023/07/07 11:19:52;;;;;;;;;;;25.30;35.20;;;;;;1574190;74;1956;-60
2023/07/07 11:22:00;;;;;;;;;;;25.30;35.30;;;;;;1576361;74;1423;-62
2023/07/07 11:24:12;;;;;;;;;;;25.30;34.60;;;;;;1572641;74;1394;-63
2023/07/07 11:26:17;;;;;;;;;;;25.30;35.20;;;;;;1572520;74;1828;-61
2023/07/07 11:28:21;;;;;;;;;;;25.30;35.70;;;;;;1574837;74;1186;-61
2023/07/07 11:30:33;;;;;;;;;;;25.30;36.10;;;;;;1575159;74;1935;-62
2023/07/07 11:32:39;;;;;;;;;;;25.30;35.00;;;;;;1572792;74;1904;-61
2023/07/07 11:34:45;;;;;;;;;;;25.20;36.40;;;;;;1580409;73;1135;-61
2023/07/07 11:36:55;;;;;;;;;;;25.20;36.40;;;;;;1576761;74;2288;-60
2023/07/07 11:39:02;;;;;;;;;;;25.30;36.80;;;;;;1565497;74;1938;-61
2023/07/07 11:41:16;;;;;;;;;;;25.30;35.90;;;;;;1575855;74;1077;-61
2023/07/07 11:43:29;;;;;;;;;;;25.30;36.40;;;;;;1576448;74;1017;-59
2023/07/07 11:45:38;;;;;;;;;;;25.20;36.50;;;;;;1574077;74;1962;-60
2023/07/07 11:47:42;;;;;;;;;;;25.10;36.70;;;;;;1571064;74;1965;-60
2023/07/07 11:49:45;;;;;;;;;;;25.20;38.50;;;;;;1580972;74;1878;-60
2023/07/07 11:52:05;;;;;;;;;;;25.20;37.80;;;;;;1572297;74;1862;-60
2023/07/07 11:54:09;;;;;;;;;;;25.20;37.80;;;;;;1572613;74;1565;-59
2023/07/07 11:56:27;;;;;;;;;;;25.10;37.60;;;;;;1578433;74;1677;-59
2023/07/07 11:58:47;;;;;;;;;;;25.30;38.90;;;;;;1569477;74;1951;-59
2023/07/07 12:00:51;;;;;;;;;;;25.30;38.70;;;;;;1578256;74;1077;-59
2023/07/07 12:02:56;;;;;;;;;;;25.30;38.80;;;;;;1573395;74;1083;-59
2023/07/07 12:04:58;;;;;;;;;;;25.30;39.30;;;;;;1576116;74;751;-57
2023/07/07 12:07:01;;;;;;;;;;;25.30;39.30;;;;;;1574529;74;1491;-58
2023/07/07 12:09:17;;;;;;;;;;;25.30;38.90;;;;;;1567460;74;1153;-58
2023/07/07 12:11:19;;;;;;;;;;;25.30;38.60;;;;;;1584181;73;643;-58
2023/07/07 12:13:22;;;;;;;;;;;25.40;38.10;;;;;;1579817;74;779;-58
2023/07/07 12:15:25;;;;;;;;;;;25.30;38.40;;;;;;1585239;74;710;-59